KSLK

Adirondack Regional Airport

Saranac Lake, New York, USA
METAR KSLK 182201Z AUTO 25009G26KT 210V290 10SM BKN029 BKN034 23/20 A2972 RMK AO2 PK WND 27026/2154 T02330200
Observed Flight Rules
Jun-18 @ 22:01 UTC (27 minutes ago) Marginal Visual Flight Rules
Wind Visibility Clouds
250° at 9 knots
 Gusting to 26 knots
10 miles
  • Broken at 2,900' AGL
  • Broken at 3,400' AGL
Temperatures Readings
Current 23°C / 73°F
Dewpoint 20°C / 68°F
Humidity 83%
Altimeter 29.72" Hg
Pressure 1006 hPa
Elevation 498
METAR KSLK 182201Z AUTO 25009G26KT 210V290 10SM BKN029 BKN034 23/20 A2972 RMK AO2 PK WND 27026/2154 T02330200
Observed Flight Rules
Jun-18 @ 22:01 UTC
(27 minutes ago)
MVFR
Wind Visibility
250° at 9 knots
 Gusting to 26 knots
10 miles
Clouds
  • Broken at 2,900' AGL
  • Broken at 3,400' AGL
Temperature Dewpoint
23°C / 73°F 20°C / 68°F
Humidity Altimeter Pressure
83% 29.72" Hg 1006 hPa